»·PEaware :: UAL877 KDEN-CYYC

UAL877 :: KDEN-CYYC

FLIGHT INFORMATION

Flight Status: Arrived
Operator:
United Airlines
More flights by this operator :: More flights under this callsign
Pilot: Anonymous 13363 (13363)
Aircraft: BOEING 737-800
(B738)
More flights by this aircraft type
Origin: KDEN Denver Intl
United States
Destination: CYYC Calgary Intl
Canada
More flights between these airports :: More routes between these airports
Route: +RIKKK3 FISAR KU87S IKNUK EBGAL TIDUK4
File this flight plan on PilotEdge
Remarks: Twitch.tv / ajonesieee
Altitude:
(Current/Filed)
36,000ft
Speed:
(Current/Filed)
400kts
Departed: 11-Aug-17 10:20 PM
Arrived: 12-Aug-17 12:30 AM
Distance/Time
Traveled:
781nm/2:10
Distance/Time
To Go:
Arrived

Flight Plot

Page will automatically refresh every two minutes.

Flight plan parsing failed; only flown route is shown


Map Options




Map Legend


Flown Route
Filed Route
Departure Airport
Arrival Airport
Navaid (VOR, NDB)
Fix

Horizontal Profiles

Position Reports

Time Latitude Longitude Heading Altitude Ground
Speed
11-Aug-17 21:46 39.858056 -104.676779 350 5439ft 0kts
11-Aug-17 21:47 39.858056 -104.676779 350 5439ft 0kts
11-Aug-17 21:48 39.858056 -104.676779 350 5439ft 0kts
11-Aug-17 21:49 39.858056 -104.676779 350 5439ft 0kts
11-Aug-17 21:50 39.858056 -104.676779 350 5439ft 0kts
11-Aug-17 21:51 39.858056 -104.676779 350 5439ft 0kts
11-Aug-17 21:52 39.858056 -104.676779 350 5439ft 0kts
11-Aug-17 21:53 39.858056 -104.676779 350 5439ft 0kts
11-Aug-17 21:54 39.858056 -104.676779 350 5439ft 0kts
11-Aug-17 21:55 39.858056 -104.676779 350 5439ft 0kts
11-Aug-17 21:56 39.858056 -104.676779 350 5439ft 0kts
11-Aug-17 21:57 39.858056 -104.676779 350 5438ft 0kts
11-Aug-17 21:58 39.858056 -104.676779 350 5439ft 0kts
11-Aug-17 21:59 39.858056 -104.676779 350 5439ft 0kts
11-Aug-17 22:00 39.858056 -104.676779 350 5438ft 0kts
11-Aug-17 22:01 39.858056 -104.676779 350 5438ft 0kts
11-Aug-17 22:02 39.858056 -104.676779 350 5438ft 0kts
11-Aug-17 22:03 39.858056 -104.676779 350 5438ft 0kts
11-Aug-17 22:04 39.857600 -104.676681 358 5438ft 0kts
11-Aug-17 22:05 39.857600 -104.676682 358 5438ft 0kts
11-Aug-17 22:06 39.857600 -104.676680 358 5438ft 0kts
11-Aug-17 22:16 39.858056 -104.676779 350 5438ft 0kts
11-Aug-17 22:17 39.856853 -104.676523 350 5439ft 11kts
11-Aug-17 22:18 39.856485 -104.676443 345 5439ft 0kts
11-Aug-17 22:19 39.856568 -104.676803 267 5438ft 3kts
11-Aug-17 22:20 39.856235 -104.680492 255 5439ft 16kts
11-Aug-17 22:21 39.853190 -104.683992 175 5438ft 21kts
11-Aug-17 22:22 39.846447 -104.684048 177 5439ft 24kts
11-Aug-17 22:23 39.840857 -104.684196 196 5438ft 12kts
11-Aug-17 22:24 39.840793 -104.703294 269 5439ft 150kts
11-Aug-17 22:25 39.848671 -104.770536 299 7082ft 220kts
11-Aug-17 22:26 39.885375 -104.849126 300 9085ft 290kts
11-Aug-17 22:27 39.941977 -104.925539 325 11084ft 329kts
11-Aug-17 22:28 40.032631 -104.943867 358 14370ft 347kts
11-Aug-17 22:29 40.120337 -104.901606 32 17257ft 373kts
11-Aug-17 22:30 40.209037 -104.829417 10 19795ft 386kts
11-Aug-17 22:31 40.315070 -104.803882 354 22296ft 392kts
11-Aug-17 22:32 40.424869 -104.812490 349 24648ft 404kts
11-Aug-17 22:33 40.537476 -104.824063 348 26781ft 416kts
11-Aug-17 22:34 40.651925 -104.835921 347 29209ft 413kts
11-Aug-17 22:35 40.764231 -104.847727 344 31348ft 406kts
11-Aug-17 22:35 40.849933 -104.882501 330 32694ft 390kts
11-Aug-17 22:36 40.955258 -104.933985 330 33256ft 420kts
11-Aug-17 22:38 41.080149 -104.995219 330 35602ft 406kts
11-Aug-17 22:39 41.178021 -105.043589 330 36278ft 400kts
11-Aug-17 22:40 41.283613 -105.096095 331 36326ft 423kts
11-Aug-17 22:41 41.392503 -105.150087 331 36292ft 423kts
11-Aug-17 22:41 41.483783 -105.195621 331 36285ft 424kts
11-Aug-17 22:42 41.588480 -105.258455 319 36271ft 411kts
11-Aug-17 22:43 41.683994 -105.342429 319 36273ft 422kts
11-Aug-17 22:44 41.780880 -105.428777 319 36224ft 421kts
11-Aug-17 22:45 41.877564 -105.515511 319 36261ft 421kts
11-Aug-17 22:46 41.974186 -105.602505 319 36270ft 421kts
11-Aug-17 22:47 42.068396 -105.687657 318 36253ft 421kts
11-Aug-17 22:48 42.161241 -105.771854 318 36253ft 421kts
11-Aug-17 22:49 42.257307 -105.859282 318 36222ft 421kts
11-Aug-17 22:50 42.353470 -105.947171 318 36216ft 420kts
11-Aug-17 22:51 42.449370 -106.035136 318 36211ft 420kts
11-Aug-17 22:52 42.545367 -106.123517 318 36210ft 421kts
11-Aug-17 22:53 42.641592 -106.212419 318 36210ft 420kts
11-Aug-17 22:54 42.737136 -106.301056 318 36209ft 420kts
11-Aug-17 22:55 42.832793 -106.390123 318 36207ft 421kts
11-Aug-17 22:56 42.928559 -106.479933 319 36204ft 420kts
11-Aug-17 22:57 43.024639 -106.570449 321 36203ft 423kts
11-Aug-17 22:58 43.117959 -106.657939 321 36208ft 424kts
11-Aug-17 22:59 43.209228 -106.744042 321 36212ft 423kts
11-Aug-17 23:00 43.305621 -106.835473 321 36212ft 423kts
11-Aug-17 23:01 43.401722 -106.926941 320 36211ft 422kts
11-Aug-17 23:02 43.497226 -107.018296 320 36210ft 421kts
11-Aug-17 23:03 43.592788 -107.110139 320 36176ft 421kts
11-Aug-17 23:04 43.687958 -107.201925 320 36142ft 421kts
11-Aug-17 23:05 43.783461 -107.294371 320 36126ft 421kts
11-Aug-17 23:06 43.878577 -107.386810 320 36123ft 421kts
11-Aug-17 23:07 43.973788 -107.479711 320 36122ft 421kts
11-Aug-17 23:08 44.069079 -107.573060 320 36122ft 421kts
11-Aug-17 23:09 44.156159 -107.658694 319 36127ft 421kts
11-Aug-17 23:10 44.248895 -107.750204 319 36118ft 421kts
11-Aug-17 23:11 44.343749 -107.844225 319 36112ft 421kts
11-Aug-17 23:12 44.438526 -107.938543 319 36110ft 421kts
11-Aug-17 23:13 44.536467 -108.026441 325 36119ft 426kts
11-Aug-17 23:14 44.640109 -108.105695 326 36108ft 426kts
11-Aug-17 23:15 44.742960 -108.183870 326 36108ft 426kts
11-Aug-17 23:16 44.846458 -108.262794 326 36110ft 426kts
11-Aug-17 23:17 44.949871 -108.341966 326 36134ft 425kts
11-Aug-17 23:18 45.052694 -108.420925 326 36163ft 418kts
11-Aug-17 23:19 45.148953 -108.495243 325 36177ft 411kts
11-Aug-17 23:20 45.248926 -108.572736 326 36178ft 413kts
11-Aug-17 23:21 45.348096 -108.649883 326 36157ft 412kts
11-Aug-17 23:22 45.442606 -108.723703 325 36135ft 412kts
11-Aug-17 23:23 45.542119 -108.801743 325 36131ft 412kts
11-Aug-17 23:24 45.642130 -108.880465 325 36128ft 412kts
11-Aug-17 23:25 45.741292 -108.958844 325 36127ft 412kts
11-Aug-17 23:26 45.841093 -109.038169 325 36125ft 414kts
11-Aug-17 23:27 45.941788 -109.118447 325 36125ft 417kts
11-Aug-17 23:28 46.042537 -109.199105 326 36124ft 419kts
11-Aug-17 23:29 46.140598 -109.277838 326 36110ft 419kts
11-Aug-17 23:30 46.240998 -109.358858 326 36109ft 419kts
11-Aug-17 23:31 46.341993 -109.440696 326 36146ft 419kts
11-Aug-17 23:32 46.442875 -109.522814 326 36150ft 419kts
11-Aug-17 23:33 46.543932 -109.605420 326 36150ft 419kts
11-Aug-17 23:34 46.638116 -109.682775 325 36159ft 418kts
11-Aug-17 23:35 46.739033 -109.765941 325 36157ft 418kts
11-Aug-17 23:36 46.839634 -109.849242 325 36156ft 418kts
11-Aug-17 23:37 46.939879 -109.932781 326 36153ft 414kts
11-Aug-17 23:38 47.038578 -110.015428 327 36151ft 409kts
11-Aug-17 23:39 47.133651 -110.094866 327 36159ft 409kts
11-Aug-17 23:40 47.231496 -110.177144 327 36156ft 410kts
11-Aug-17 23:41 47.329447 -110.260018 327 36145ft 409kts
11-Aug-17 23:42 47.427633 -110.343450 327 36133ft 409kts
11-Aug-17 23:43 47.525612 -110.427039 327 36124ft 409kts
11-Aug-17 23:44 47.623649 -110.511070 327 36122ft 409kts
11-Aug-17 23:45 47.721800 -110.595533 327 36122ft 409kts
11-Aug-17 23:46 47.815739 -110.676773 326 36129ft 409kts
11-Aug-17 23:47 47.913601 -110.761724 327 36126ft 409kts
11-Aug-17 23:48 48.011331 -110.846933 326 36125ft 409kts
11-Aug-17 23:49 48.106660 -110.930523 327 36126ft 410kts
11-Aug-17 23:50 48.203508 -111.015815 327 36130ft 411kts
11-Aug-17 23:51 48.301378 -111.102321 328 36131ft 413kts
11-Aug-17 23:52 48.400109 -111.189852 328 36127ft 413kts
11-Aug-17 23:53 48.498549 -111.277589 328 36125ft 414kts
11-Aug-17 23:54 48.596987 -111.365749 328 36137ft 413kts
11-Aug-17 23:55 48.694732 -111.453709 328 36142ft 414kts
11-Aug-17 23:56 48.793144 -111.542696 328 36140ft 414kts
11-Aug-17 23:57 48.891344 -111.631867 328 36141ft 414kts
11-Aug-17 23:58 48.987456 -111.719748 328 36144ft 413kts
11-Aug-17 23:59 49.085580 -111.810429 331 36140ft 421kts
12-Aug-17 00:00 49.181886 -111.898601 332 36148ft 425kts
12-Aug-17 00:01 49.282704 -111.991489 332 36149ft 426kts
12-Aug-17 00:02 49.383182 -112.084884 332 36127ft 426kts
12-Aug-17 00:03 49.483698 -112.179712 331 36109ft 426kts
12-Aug-17 00:04 49.583881 -112.275414 331 36108ft 426kts
12-Aug-17 00:05 49.683950 -112.371525 331 36107ft 426kts
12-Aug-17 00:06 49.783846 -112.467954 331 36106ft 426kts
12-Aug-17 00:07 49.883884 -112.564966 331 36107ft 426kts
12-Aug-17 00:08 49.981233 -112.659834 330 36103ft 426kts
12-Aug-17 00:09 50.079138 -112.755728 331 36103ft 427kts
12-Aug-17 00:10 50.173555 -112.848553 330 36113ft 428kts
12-Aug-17 00:11 50.273961 -112.947769 330 36112ft 431kts
12-Aug-17 00:12 50.375062 -113.048248 329 36112ft 434kts
12-Aug-17 00:13 50.476541 -113.149804 329 36113ft 434kts
12-Aug-17 00:14 50.571379 -113.265335 301 33458ft 446kts
12-Aug-17 00:15 50.545147 -113.442640 219 30436ft 465kts
12-Aug-17 00:16 50.419789 -113.494300 177 27682ft 482kts
12-Aug-17 00:17 50.329350 -113.369311 96 24782ft 452kts
12-Aug-17 00:18 50.390387 -113.218609 16 22362ft 442kts
12-Aug-17 00:19 50.504784 -113.177331 353 19890ft 404kts
12-Aug-17 00:20 50.593881 -113.264798 325 17418ft 368kts
12-Aug-17 00:21 50.676011 -113.350232 327 15227ft 345kts
12-Aug-17 00:22 50.747838 -113.441250 319 13420ft 319kts
12-Aug-17 00:23 50.812539 -113.529091 319 11799ft 300kts
12-Aug-17 00:24 50.873934 -113.612875 318 10212ft 287kts
12-Aug-17 00:25 50.921284 -113.700219 278 9157ft 261kts
12-Aug-17 00:26 50.926280 -113.809961 271 8785ft 231kts
12-Aug-17 00:27 50.927584 -113.909788 277 7704ft 217kts
12-Aug-17 00:29 50.966181 -113.970403 323 6392ft 188kts
12-Aug-17 00:30 51.012007 -113.989994 0 5271ft 160kts
12-Aug-17 00:31 51.054348 -113.990439 1 4708ft 154kts
12-Aug-17 00:32 51.096128 -113.991276 1 3882ft 151kts
12-Aug-17 00:33 51.128389 -113.991299 353 3565ft 44kts
12-Aug-17 00:34 51.131049 -113.994525 268 3565ft 0kts
12-Aug-17 00:35 51.128415 -113.995249 180 3565ft 19kts
12-Aug-17 00:36 51.126814 -114.001084 271 3565ft 16kts
12-Aug-17 00:37 51.127674 -114.007127 317 3565ft 10kts
12-Aug-17 00:38 51.127999 -114.011240 299 3565ft 15kts
12-Aug-17 00:39 51.128756 -114.013003 347 3565ft 0kts
12-Aug-17 00:40 51.128756 -114.013003 347 3565ft 0kts

Navigation Log

Ident Type
Flight plan parsing failed, navigation log unavailable